Terminal Aerodrome Forecast
Issued by NWS Albuquerque, NM

Home | Current Version | Previous Version | Text Only | Print | Product List | Glossary On
Versions: 1 2 3 4 5 6 7 8 9 10 11 12 13 14 15
454
FTUS45 KABQ 292334
TAFABQ
TAF
KABQ 292334Z 3000/3024 17015G22KT P6SM VCTS SCT090CB BKN200
      TEMPO 3000/3001 36025G35KT TSRA BKN080CB
     FM300100 13012KT P6SM VCSH SCT100 BKN150
     FM300500 09006KT P6SM SCT150
     FM301600 20009KT P6SM FEW080
     FM302200 19014G20KT P6SM VCTS SCT080CB BKN150=

USA.gov is the U.S. government's official web portal to all federal, state and local government web resources and services.